sensor_id;sensor_type;location;lat;lon;timestamp;pressure;altitude;pressure_sealevel;temperature;humidity
79645;BME280;69117;47.148;18.954;2024-01-30T00:00:57;102879.69;;;-3.26;100.00
79645;BME280;69117;47.148;18.954;2024-01-30T00:03:58;102859.88;;;-3.25;100.00
79645;BME280;69117;47.148;18.954;2024-01-30T00:07:00;102871.09;;;-3.17;100.00
79645;BME280;69117;47.148;18.954;2024-01-30T00:10:02;102885.75;;;-3.17;100.00
79645;BME280;69117;47.148;18.954;2024-01-30T00:13:04;102880.59;;;-3.17;100.00
79645;BME280;69117;47.148;18.954;2024-01-30T00:16:06;102865.03;;;-3.27;100.00
79645;BME280;69117;47.148;18.954;2024-01-30T00:19:08;102860.69;;;-3.34;100.00
79645;BME280;69117;47.148;18.954;2024-01-30T00:22:10;102883.97;;;-3.28;100.00
79645;BME280;69117;47.148;18.954;2024-01-30T00:25:12;102881.34;;;-3.34;100.00
79645;BME280;69117;47.148;18.954;2024-01-30T00:28:13;102879.63;;;-3.38;100.00
79645;BME280;69117;47.148;18.954;2024-01-30T00:31:15;102878.72;;;-3.43;100.00
79645;BME280;69117;47.148;18.954;2024-01-30T00:34:17;102882.16;;;-3.42;100.00
79645;BME280;69117;47.148;18.954;2024-01-30T00:37:19;102893.34;;;-3.47;100.00
79645;BME280;69117;47.148;18.954;2024-01-30T00:40:20;102884.72;;;-3.49;100.00
79645;BME280;69117;47.148;18.954;2024-01-30T00:43:22;102883.00;;;-3.53;100.00
79645;BME280;69117;47.148;18.954;2024-01-30T00:46:26;102886.44;;;-3.49;100.00
79645;BME280;69117;47.148;18.954;2024-01-30T00:49:28;102890.78;;;-3.42;100.00
79645;BME280;69117;47.148;18.954;2024-01-30T00:52:29;102889.06;;;-3.44;100.00
79645;BME280;69117;47.148;18.954;2024-01-30T00:55:31;102893.34;;;-3.45;100.00
79645;BME280;69117;47.148;18.954;2024-01-30T00:58:33;102884.75;;;-3.47;100.00
79645;BME280;69117;47.148;18.954;2024-01-30T01:01:35;102873.50;;;-3.55;100.00
79645;BME280;69117;47.148;18.954;2024-01-30T01:04:36;102886.47;;;-3.43;100.00
79645;BME280;69117;47.148;18.954;2024-01-30T01:07:38;102887.34;;;-3.44;100.00
79645;BME280;69117;47.148;18.954;2024-01-30T01:10:41;102876.13;;;-3.48;100.00
79645;BME280;69117;47.148;18.954;2024-01-30T01:13:43;102880.41;;;-3.51;100.00
79645;BME280;69117;47.148;18.954;2024-01-30T01:16:45;102879.53;;;-3.56;100.00
79645;BME280;69117;47.148;18.954;2024-01-30T01:19:47;102878.63;;;-3.63;100.00
79645;BME280;69117;47.148;18.954;2024-01-30T01:22:48;102876.03;;;-3.66;100.00
79645;BME280;69117;47.148;18.954;2024-01-30T01:25:50;102882.88;;;-3.71;100.00
79645;BME280;69117;47.148;18.954;2024-01-30T01:28:52;102878.53;;;-3.80;100.00
79645;BME280;69117;47.148;18.954;2024-01-30T01:31:55;102863.00;;;-3.83;100.00
79645;BME280;69117;47.148;18.954;2024-01-30T01:34:58;102866.47;;;-3.79;100.00
79645;BME280;69117;47.148;18.954;2024-01-30T01:37:59;102869.06;;;-3.81;100.00
79645;BME280;69117;47.148;18.954;2024-01-30T01:41:01;102859.53;;;-3.89;100.00
79645;BME280;69117;47.148;18.954;2024-01-30T01:44:03;102868.16;;;-3.86;100.00
79645;BME280;69117;47.148;18.954;2024-01-30T01:47:05;102856.09;;;-3.88;100.00
79645;BME280;69117;47.148;18.954;2024-01-30T01:50:07;102857.84;;;-3.83;100.00
79645;BME280;69117;47.148;18.954;2024-01-30T01:53:09;102867.34;;;-3.80;100.00
79645;BME280;69117;47.148;18.954;2024-01-30T01:56:11;102861.28;;;-3.82;100.00
79645;BME280;69117;47.148;18.954;2024-01-30T01:59:13;102862.16;;;-3.83;100.00
79645;BME280;69117;47.148;18.954;2024-01-30T02:02:17;102863.91;;;-3.81;100.00
79645;BME280;69117;47.148;18.954;2024-01-30T02:05:21;102849.25;;;-3.83;100.00
79645;BME280;69117;47.148;18.954;2024-01-30T02:08:24;102854.41;;;-3.83;100.00
79645;BME280;69117;47.148;18.954;2024-01-30T02:11:26;102868.13;;;-3.87;100.00
79645;BME280;69117;47.148;18.954;2024-01-30T02:14:28;102854.38;;;-3.88;100.00
79645;BME280;69117;47.148;18.954;2024-01-30T02:17:31;102861.25;;;-3.93;100.00
79645;BME280;69117;47.148;18.954;2024-01-30T02:20:34;102862.09;;;-3.91;100.00
79645;BME280;69117;47.148;18.954;2024-01-30T02:23:40;102852.59;;;-3.95;100.00
79645;BME280;69117;47.148;18.954;2024-01-30T02:26:42;102850.88;;;-3.99;100.00
79645;BME280;69117;47.148;18.954;2024-01-30T02:29:44;102861.25;;;-3.90;100.00
79645;BME280;69117;47.148;18.954;2024-01-30T02:32:45;102848.31;;;-3.95;100.00
79645;BME280;69117;47.148;18.954;2024-01-30T02:35:47;102869.00;;;-3.85;100.00
79645;BME280;69117;47.148;18.954;2024-01-30T02:38:49;102868.13;;;-3.89;100.00
79645;BME280;69117;47.148;18.954;2024-01-30T02:41:51;102848.28;;;-3.98;100.00
79645;BME280;69117;47.148;18.954;2024-01-30T02:44:52;102855.16;;;-3.98;100.00
79645;BME280;69117;47.148;18.954;2024-01-30T02:47:54;102860.34;;;-3.94;100.00
79645;BME280;69117;47.148;18.954;2024-01-30T02:50:56;102863.78;;;-3.98;100.00
79645;BME280;69117;47.148;18.954;2024-01-30T02:53:59;102847.34;;;-4.10;100.00
79645;BME280;69117;47.148;18.954;2024-01-30T02:57:01;102859.38;;;-4.09;100.00
79645;BME280;69117;47.148;18.954;2024-01-30T03:00:03;102848.16;;;-4.16;100.00
79645;BME280;69117;47.148;18.954;2024-01-30T03:03:06;102856.78;;;-4.12;100.00
79645;BME280;69117;47.148;18.954;2024-01-30T03:06:08;102859.38;;;-4.14;100.00
79645;BME280;69117;47.148;18.954;2024-01-30T03:09:10;102858.50;;;-4.13;100.00
79645;BME280;69117;47.148;18.954;2024-01-30T03:12:12;102855.88;;;-4.18;100.00
79645;BME280;69117;47.148;18.954;2024-01-30T03:15:13;102841.19;;;-4.25;100.00
79645;BME280;69117;47.148;18.954;2024-01-30T03:18:15;102848.97;;;-4.22;100.00
79645;BME280;69117;47.148;18.954;2024-01-30T03:21:17;102842.09;;;-4.23;100.00
79645;BME280;69117;47.148;18.954;2024-01-30T03:24:18;102829.16;;;-4.26;100.00
79645;BME280;69117;47.148;18.954;2024-01-30T03:27:20;102830.88;;;-4.29;100.00
79645;BME280;69117;47.148;18.954;2024-01-30T03:30:22;102840.31;;;-4.27;100.00
79645;BME280;69117;47.148;18.954;2024-01-30T03:33:23;102832.56;;;-4.31;100.00
79645;BME280;69117;47.148;18.954;2024-01-30T03:36:25;102828.22;;;-4.34;100.00
79645;BME280;69117;47.148;18.954;2024-01-30T03:39:27;102830.84;;;-4.32;100.00
79645;BME280;69117;47.148;18.954;2024-01-30T03:42:29;102837.72;;;-4.31;100.00
79645;BME280;69117;47.148;18.954;2024-01-30T03:45:30;102832.50;;;-4.38;100.00
79645;BME280;69117;47.148;18.954;2024-01-30T03:48:32;102829.91;;;-4.39;100.00
79645;BME280;69117;47.148;18.954;2024-01-30T03:51:34;102835.16;;;-4.28;100.00
79645;BME280;69117;47.148;18.954;2024-01-30T03:54:36;102843.78;;;-4.25;100.00
79645;BME280;69117;47.148;18.954;2024-01-30T03:57:37;102827.31;;;-4.39;100.00
79645;BME280;69117;47.148;18.954;2024-01-30T04:00:39;102832.53;;;-4.33;100.00
79645;BME280;69117;47.148;18.954;2024-01-30T04:03:42;102843.75;;;-4.29;100.00
79645;BME280;69117;47.148;18.954;2024-01-30T04:06:46;102814.41;;;-4.42;100.00
79645;BME280;69117;47.148;18.954;2024-01-30T04:09:48;102824.78;;;-4.34;100.00
79645;BME280;69117;47.148;18.954;2024-01-30T04:12:50;102823.06;;;-4.35;100.00
79645;BME280;69117;47.148;18.954;2024-01-30T04:15:51;102834.31;;;-4.29;100.00
79645;BME280;69117;47.148;18.954;2024-01-30T04:18:53;102823.97;;;-4.32;100.00
79645;BME280;69117;47.148;18.954;2024-01-30T04:21:55;102823.13;;;-4.28;100.00
79645;BME280;69117;47.148;18.954;2024-01-30T04:24:57;102818.78;;;-4.30;100.00
79645;BME280;69117;47.148;18.954;2024-01-30T04:27:58;102815.38;;;-4.32;100.00
79645;BME280;69117;47.148;18.954;2024-01-30T04:31:00;102825.63;;;-4.37;100.00
79645;BME280;69117;47.148;18.954;2024-01-30T04:34:02;102829.06;;;-4.38;100.00
79645;BME280;69117;47.148;18.954;2024-01-30T04:37:04;102830.75;;;-4.43;100.00
79645;BME280;69117;47.148;18.954;2024-01-30T04:40:06;102828.13;;;-4.46;100.00
79645;BME280;69117;47.148;18.954;2024-01-30T04:43:08;102834.13;;;-4.49;100.00
79645;BME280;69117;47.148;18.954;2024-01-30T04:46:10;102849.59;;;-4.50;100.00
79645;BME280;69117;47.148;18.954;2024-01-30T04:49:12;102845.28;;;-4.51;100.00
79645;BME280;69117;47.148;18.954;2024-01-30T04:52:14;102846.13;;;-4.52;100.00
79645;BME280;69117;47.148;18.954;2024-01-30T04:55:15;102851.28;;;-4.51;100.00
79645;BME280;69117;47.148;18.954;2024-01-30T04:58:21;102841.88;;;-4.50;100.00
79645;BME280;69117;47.148;18.954;2024-01-30T05:01:23;102847.06;;;-4.47;100.00
79645;BME280;69117;47.148;18.954;2024-01-30T05:04:25;102845.28;;;-4.51;100.00
79645;BME280;69117;47.148;18.954;2024-01-30T05:07:26;102853.88;;;-4.52;100.00
79645;BME280;69117;47.148;18.954;2024-01-30T05:10:28;102838.34;;;-4.58;100.00
79645;BME280;69117;47.148;18.954;2024-01-30T05:13:31;102842.66;;;-4.56;100.00
79645;BME280;69117;47.148;18.954;2024-01-30T05:16:33;102844.38;;;-4.55;100.00
79645;BME280;69117;47.148;18.954;2024-01-30T05:19:34;102849.59;;;-4.49;100.00
79645;BME280;69117;47.148;18.954;2024-01-30T05:22:36;102853.84;;;-4.54;100.00
79645;BME280;69117;47.148;18.954;2024-01-30T05:25:38;102861.69;;;-4.45;100.00
79645;BME280;69117;47.148;18.954;2024-01-30T05:28:40;102860.00;;;-4.41;100.00
79645;BME280;69117;47.148;18.954;2024-01-30T05:31:42;102864.25;;;-4.46;100.00
79645;BME280;69117;47.148;18.954;2024-01-30T05:34:43;102854.69;;;-4.56;100.00
79645;BME280;69117;47.148;18.954;2024-01-30T05:37:47;102865.88;;;-4.54;100.00
79645;BME280;69117;47.148;18.954;2024-01-30T05:40:49;102837.38;;;-4.70;100.00
79645;BME280;69117;47.148;18.954;2024-01-30T05:43:51;102865.78;;;-4.65;100.00
79645;BME280;69117;47.148;18.954;2024-01-30T05:46:53;102855.38;;;-4.74;100.00
79645;BME280;69117;47.148;18.954;2024-01-30T05:49:55;102848.47;;;-4.77;100.00
79645;BME280;69117;47.148;18.954;2024-01-30T05:52:56;102870.91;;;-4.68;100.00
79645;BME280;69117;47.148;18.954;2024-01-30T05:55:58;102870.88;;;-4.70;100.00
79645;BME280;69117;47.148;18.954;2024-01-30T05:59:00;102858.75;;;-4.78;100.00
79645;BME280;69117;47.148;18.954;2024-01-30T06:02:02;102859.63;;;-4.81;100.00
79645;BME280;69117;47.148;18.954;2024-01-30T06:05:04;102861.38;;;-4.75;100.00
79645;BME280;69117;47.148;18.954;2024-01-30T06:08:06;102860.47;;;-4.79;100.00
79645;BME280;69117;47.148;18.954;2024-01-30T06:11:10;102856.09;;;-4.88;100.00
79645;BME280;69117;47.148;18.954;2024-01-30T06:14:13;102871.66;;;-4.80;100.00
79645;BME280;69117;47.148;18.954;2024-01-30T06:17:14;102851.75;;;-4.90;100.00
79645;BME280;69117;47.148;18.954;2024-01-30T06:20:16;102863.91;;;-4.80;100.00
79645;BME280;69117;47.148;18.954;2024-01-30T06:23:18;102876.03;;;-4.70;100.00
79645;BME280;69117;47.148;18.954;2024-01-30T06:26:19;102871.75;;;-4.69;100.00
79645;BME280;69117;47.148;18.954;2024-01-30T06:29:21;102871.81;;;-4.65;100.00
79645;BME280;69117;47.148;18.954;2024-01-30T06:32:23;102878.75;;;-4.59;100.00
79645;BME280;69117;47.148;18.954;2024-01-30T06:35:25;102879.59;;;-4.57;100.00
79645;BME280;69117;47.148;18.954;2024-01-30T06:38:27;102878.81;;;-4.50;100.00
79645;BME280;69117;47.148;18.954;2024-01-30T06:41:29;102874.53;;;-4.49;100.00
79645;BME280;69117;47.148;18.954;2024-01-30T06:44:31;102878.03;;;-4.40;100.00
79645;BME280;69117;47.148;18.954;2024-01-30T06:47:33;102878.09;;;-4.33;100.00
79645;BME280;69117;47.148;18.954;2024-01-30T06:50:35;102879.06;;;-4.22;100.00
79645;BME280;69117;47.148;18.954;2024-01-30T06:53:37;102894.69;;;-4.05;100.00
79645;BME280;69117;47.148;18.954;2024-01-30T06:56:39;102897.38;;;-3.93;100.00
79645;BME280;69117;47.148;18.954;2024-01-30T06:59:40;102900.00;;;-3.82;100.00
79645;BME280;69117;47.148;18.954;2024-01-30T07:02:46;102899.19;;;-3.75;100.00
79645;BME280;69117;47.148;18.954;2024-01-30T07:05:47;102878.59;;;-3.71;100.00
79645;BME280;69117;47.148;18.954;2024-01-30T07:08:50;102881.25;;;-3.60;100.00
79645;BME280;69117;47.148;18.954;2024-01-30T07:11:53;102908.94;;;-3.31;100.00
79645;BME280;69117;47.148;18.954;2024-01-30T07:14:54;102900.38;;;-3.19;100.00
79645;BME280;69117;47.148;18.954;2024-01-30T07:17:58;102893.53;;;-3.07;100.00
79645;BME280;69117;47.148;18.954;2024-01-30T07:21:00;102906.56;;;-2.81;100.00
79645;BME280;69117;47.148;18.954;2024-01-30T07:24:02;102898.84;;;-2.64;100.00
79645;BME280;69117;47.148;18.954;2024-01-30T07:27:04;102909.22;;;-2.47;100.00
79645;BME280;69117;47.148;18.954;2024-01-30T07:30:06;102902.34;;;-2.34;100.00
79645;BME280;69117;47.148;18.954;2024-01-30T07:33:08;102892.88;;;-2.20;100.00
79645;BME280;69117;47.148;18.954;2024-01-30T07:36:10;102894.56;;;-2.07;100.00
79645;BME280;69117;47.148;18.954;2024-01-30T07:39:12;102896.28;;;-1.82;100.00
79645;BME280;69117;47.148;18.954;2024-01-30T07:42:13;102882.47;;;-1.72;100.00
79645;BME280;69117;47.148;18.954;2024-01-30T07:45:15;102895.34;;;-1.42;100.00
79645;BME280;69117;47.148;18.954;2024-01-30T07:48:17;102885.78;;;-1.27;100.00
79645;BME280;69117;47.148;18.954;2024-01-30T07:51:19;102888.31;;;-1.15;100.00
79645;BME280;69117;47.148;18.954;2024-01-30T07:54:21;102900.31;;;-0.88;100.00
79645;BME280;69117;47.148;18.954;2024-01-30T07:57:22;102885.56;;;-0.80;100.00
79645;BME280;69117;47.148;18.954;2024-01-30T08:00:24;102896.72;;;-0.62;100.00
79645;BME280;69117;47.148;18.954;2024-01-30T08:03:26;102897.47;;;-0.47;100.00
79645;BME280;69117;47.148;18.954;2024-01-30T08:06:28;102892.25;;;-0.39;100.00
79645;BME280;69117;47.148;18.954;2024-01-30T08:09:29;102879.25;;;-0.40;100.00
79645;BME280;69117;47.148;18.954;2024-01-30T08:12:31;102895.59;;;-0.23;100.00
79645;BME280;69117;47.148;18.954;2024-01-30T08:15:33;102892.97;;;-0.20;100.00
79645;BME280;69117;47.148;18.954;2024-01-30T08:18:35;102894.91;;;-0.53;100.00
79645;BME280;69117;47.148;18.954;2024-01-30T08:21:36;102903.38;;;-0.25;100.00
79645;BME280;69117;47.148;18.954;2024-01-30T08:24:40;102901.66;;;-0.24;100.00
79645;BME280;69117;47.148;18.954;2024-01-30T08:27:42;102894.69;;;-0.17;100.00
79645;BME280;69117;47.148;18.954;2024-01-30T08:30:44;102891.94;;;-0.01;100.00
79645;BME280;69117;47.148;18.954;2024-01-30T08:33:46;102907.47;;;0.03;100.00
79645;BME280;69117;47.148;18.954;2024-01-30T08:36:50;102910.03;;;0.10;100.00
79645;BME280;69117;47.148;18.954;2024-01-30T08:39:52;102916.75;;;0.33;100.00
79645;BME280;69117;47.148;18.954;2024-01-30T08:42:55;102902.66;;;-0.43;100.00
79645;BME280;69117;47.148;18.954;2024-01-30T08:46:00;102915.38;;;-0.10;100.00
79645;BME280;69117;47.148;18.954;2024-01-30T08:49:02;102919.63;;;0.02;100.00
79645;BME280;69117;47.148;18.954;2024-01-30T08:52:06;102912.75;;;-0.02;100.00
79645;BME280;69117;47.148;18.954;2024-01-30T08:55:08;102902.31;;;-0.01;100.00
79645;BME280;69117;47.148;18.954;2024-01-30T08:58:11;102906.53;;;0.14;100.00
79645;BME280;69117;47.148;18.954;2024-01-30T09:01:12;102896.63;;;0.52;100.00
79645;BME280;69117;47.148;18.954;2024-01-30T09:04:15;102900.13;;;0.48;100.00
79645;BME280;69117;47.148;18.954;2024-01-30T09:07:17;102907.78;;;0.60;100.00
79645;BME280;69117;47.148;18.954;2024-01-30T09:10:19;102917.88;;;0.87;100.00
79645;BME280;69117;47.148;18.954;2024-01-30T09:13:22;102918.06;;;0.72;100.00
79645;BME280;69117;47.148;18.954;2024-01-30T09:16:24;102919.66;;;0.85;100.00
79645;BME280;69117;47.148;18.954;2024-01-30T09:19:25;102920.72;;;0.66;100.00
79645;BME280;69117;47.148;18.954;2024-01-30T09:22:27;102918.44;;;0.37;100.00
79645;BME280;69117;47.148;18.954;2024-01-30T09:25:29;102910.25;;;0.72;100.00
79645;BME280;69117;47.148;18.954;2024-01-30T09:28:31;102903.34;;;0.71;100.00
79645;BME280;69117;47.148;18.954;2024-01-30T09:31:33;102914.56;;;0.75;100.00
79645;BME280;69117;47.148;18.954;2024-01-30T09:34:34;102910.22;;;0.75;100.00
79645;BME280;69117;47.148;18.954;2024-01-30T09:37:37;102904.50;;;0.45;100.00
79645;BME280;69117;47.148;18.954;2024-01-30T09:40:39;102901.75;;;0.59;100.00
79645;BME280;69117;47.148;18.954;2024-01-30T09:43:41;102902.94;;;1.05;100.00
79645;BME280;69117;47.148;18.954;2024-01-30T09:46:46;102893.25;;;1.16;100.00
79645;BME280;69117;47.148;18.954;2024-01-30T09:49:50;102903.91;;;0.96;100.00
79645;BME280;69117;47.148;18.954;2024-01-30T09:52:53;102911.50;;;1.13;100.00
79645;BME280;69117;47.148;18.954;2024-01-30T09:55:57;102906.00;;;1.34;100.00
79645;BME280;69117;47.148;18.954;2024-01-30T09:58:59;102897.25;;;1.38;100.00
79645;BME280;69117;47.148;18.954;2024-01-30T10:02:01;102904.66;;;1.66;100.00
79645;BME280;69117;47.148;18.954;2024-01-30T10:05:02;102900.25;;;1.71;100.00
79645;BME280;69117;47.148;18.954;2024-01-30T10:08:08;102908.72;;;1.86;100.00
79645;BME280;69117;47.148;18.954;2024-01-30T10:11:10;102906.06;;;1.89;100.00
79645;BME280;69117;47.148;18.954;2024-01-30T10:14:11;102906.75;;;1.43;100.00
79645;BME280;69117;47.148;18.954;2024-01-30T10:17:13;102886.16;;;1.26;100.00
79645;BME280;69117;47.148;18.954;2024-01-30T10:20:28;102899.44;;;1.06;100.00
79645;BME280;69117;47.148;18.954;2024-01-30T10:23:30;102911.69;;;0.98;100.00
79645;BME280;69117;47.148;18.954;2024-01-30T10:26:38;102888.06;;;1.73;100.00
79645;BME280;69117;47.148;18.954;2024-01-30T10:29:39;102905.34;;;1.77;100.00
79645;BME280;69117;47.148;18.954;2024-01-30T10:32:41;102904.00;;;1.53;100.00
79645;BME280;69117;47.148;18.954;2024-01-30T10:35:43;102902.28;;;1.51;100.00
79645;BME280;69117;47.148;18.954;2024-01-30T10:38:45;102890.06;;;1.57;100.00
79645;BME280;69117;47.148;18.954;2024-01-30T10:41:51;102880.09;;;1.82;100.00
79645;BME280;69117;47.148;18.954;2024-01-30T10:45:13;102892.66;;;2.09;100.00
79645;BME280;69117;47.148;18.954;2024-01-30T10:48:18;102888.50;;;1.98;100.00
79645;BME280;69117;47.148;18.954;2024-01-30T10:51:26;102887.06;;;2.77;100.00
79645;BME280;69117;47.148;18.954;2024-01-30T10:54:28;102875.34;;;2.96;100.00
79645;BME280;69117;47.148;18.954;2024-01-30T10:57:34;102881.00;;;2.74;100.00
79645;BME280;69117;47.148;18.954;2024-01-30T11:00:36;102862.53;;;2.85;100.00
79645;BME280;69117;47.148;18.954;2024-01-30T11:03:38;102863.47;;;3.21;100.00
79645;BME280;69117;47.148;18.954;2024-01-30T11:06:43;102862.78;;;3.13;100.00
79645;BME280;69117;47.148;18.954;2024-01-30T11:13:10;102852.59;;;3.76;100.00
79645;BME280;69117;47.148;18.954;2024-01-30T11:16:12;102854.84;;;3.89;100.00
79645;BME280;69117;47.148;18.954;2024-01-30T11:19:13;102840.19;;;3.84;100.00
79645;BME280;69117;47.148;18.954;2024-01-30T11:22:15;102838.25;;;2.82;100.00
79645;BME280;69117;47.148;18.954;2024-01-30T11:25:22;102839.09;;;2.82;100.00
79645;BME280;69117;47.148;18.954;2024-01-30T11:28:32;102839.19;;;3.18;100.00
79645;BME280;69117;47.148;18.954;2024-01-30T11:31:36;102839.16;;;3.55;100.00
79645;BME280;69117;47.148;18.954;2024-01-30T11:34:41;102844.31;;;4.58;100.00
79645;BME280;69117;47.148;18.954;2024-01-30T11:37:45;102831.84;;;2.53;100.00
79645;BME280;69117;47.148;18.954;2024-01-30T11:40:48;102837.94;;;2.95;100.00
79645;BME280;69117;47.148;18.954;2024-01-30T11:43:53;102835.59;;;5.70;100.00
79645;BME280;69117;47.148;18.954;2024-01-30T11:46:55;102827.69;;;5.17;100.00
79645;BME280;69117;47.148;18.954;2024-01-30T11:49:57;102827.72;;;4.26;100.00
79645;BME280;69117;47.148;18.954;2024-01-30T11:53:02;102813.59;;;4.33;100.00
79645;BME280;69117;47.148;18.954;2024-01-30T11:56:06;102814.09;;;4.15;100.00
79645;BME280;69117;47.148;18.954;2024-01-30T11:59:07;102810.75;;;6.55;100.00
79645;BME280;69117;47.148;18.954;2024-01-30T12:02:15;102798.41;;;7.67;100.00
79645;BME280;69117;47.148;18.954;2024-01-30T12:05:19;102801.97;;;7.87;100.00
79645;BME280;69117;47.148;18.954;2024-01-30T12:08:21;102802.88;;;8.26;100.00
79645;BME280;69117;47.148;18.954;2024-01-30T12:11:23;102798.44;;;8.47;100.00
79645;BME280;69117;47.148;18.954;2024-01-30T12:14:26;102781.53;;;8.33;100.00
79645;BME280;69117;47.148;18.954;2024-01-30T12:17:30;102780.78;;;8.68;100.00
79645;BME280;69117;47.148;18.954;2024-01-30T12:20:32;102770.75;;;8.39;100.00
79645;BME280;69117;47.148;18.954;2024-01-30T12:23:35;102780.16;;;8.24;100.00
79645;BME280;69117;47.148;18.954;2024-01-30T12:26:37;102753.56;;;8.68;100.00
79645;BME280;69117;47.148;18.954;2024-01-30T12:29:42;102761.91;;;9.83;100.00
79645;BME280;69117;47.148;18.954;2024-01-30T12:32:45;102764.75;;;9.09;100.00
79645;BME280;69117;47.148;18.954;2024-01-30T12:35:48;102768.13;;;8.94;100.00
79645;BME280;69117;47.148;18.954;2024-01-30T12:39:02;102765.91;;;8.28;100.00
79645;BME280;69117;47.148;18.954;2024-01-30T12:42:05;102769.22;;;8.13;100.00
79645;BME280;69117;47.148;18.954;2024-01-30T12:45:08;102743.66;;;9.79;100.00
79645;BME280;69117;47.148;18.954;2024-01-30T12:48:09;102750.75;;;10.29;100.00
79645;BME280;69117;47.148;18.954;2024-01-30T12:51:11;102751.81;;;10.07;100.00
79645;BME280;69117;47.148;18.954;2024-01-30T12:54:13;102746.06;;;11.28;100.00
79645;BME280;69117;47.148;18.954;2024-01-30T12:57:15;102745.97;;;11.29;100.00
79645;BME280;69117;47.148;18.954;2024-01-30T13:00:17;102736.59;;;11.23;100.00
79645;BME280;69117;47.148;18.954;2024-01-30T13:03:19;102740.28;;;11.21;100.00
79645;BME280;69117;47.148;18.954;2024-01-30T13:06:21;102729.94;;;11.46;100.00
79645;BME280;69117;47.148;18.954;2024-01-30T13:09:23;102727.97;;;10.42;100.00
79645;BME280;69117;47.148;18.954;2024-01-30T13:12:25;102726.88;;;10.78;100.00
79645;BME280;69117;47.148;18.954;2024-01-30T13:15:26;102725.59;;;10.04;100.00
79645;BME280;69117;47.148;18.954;2024-01-30T13:18:28;102716.44;;;10.91;100.00
79645;BME280;69117;47.148;18.954;2024-01-30T13:21:30;102704.72;;;9.32;100.00
79645;BME280;69117;47.148;18.954;2024-01-30T13:24:32;102705.75;;;9.12;100.00
79645;BME280;69117;47.148;18.954;2024-01-30T13:27:34;102717.19;;;9.80;100.00
79645;BME280;69117;47.148;18.954;2024-01-30T13:30:35;102718.69;;;10.02;100.00
79645;BME280;69117;47.148;18.954;2024-01-30T13:33:37;102698.75;;;9.63;100.00
79645;BME280;69117;47.148;18.954;2024-01-30T13:36:39;102718.91;;;9.81;100.00
79645;BME280;69117;47.148;18.954;2024-01-30T13:39:41;102715.16;;;8.24;100.00
79645;BME280;69117;47.148;18.954;2024-01-30T13:42:43;102712.72;;;7.41;100.00
79645;BME280;69117;47.148;18.954;2024-01-30T13:45:44;102708.16;;;7.65;100.00
79645;BME280;69117;47.148;18.954;2024-01-30T13:48:47;102709.28;;;7.19;100.00
79645;BME280;69117;47.148;18.954;2024-01-30T13:51:49;102705.75;;;7.40;100.00
79645;BME280;69117;47.148;18.954;2024-01-30T13:54:50;102702.34;;;6.74;100.00
79645;BME280;69117;47.148;18.954;2024-01-30T13:57:52;102703.97;;;6.78;100.00
79645;BME280;69117;47.148;18.954;2024-01-30T14:00:54;102692.25;;;7.07;100.00
79645;BME280;69117;47.148;18.954;2024-01-30T14:03:56;102698.59;;;6.35;100.00
79645;BME280;69117;47.148;18.954;2024-01-30T14:06:58;102689.59;;;6.19;100.00
79645;BME280;69117;47.148;18.954;2024-01-30T14:10:06;102693.59;;;5.81;100.00
79645;BME280;69117;47.148;18.954;2024-01-30T14:13:13;102694.81;;;5.97;100.00
79645;BME280;69117;47.148;18.954;2024-01-30T14:16:14;102683.31;;;5.74;100.00
79645;BME280;69117;47.148;18.954;2024-01-30T14:19:16;102672.63;;;5.81;100.00
79645;BME280;69117;47.148;18.954;2024-01-30T14:22:18;102680.59;;;5.54;100.00
79645;BME280;69117;47.148;18.954;2024-01-30T14:25:19;102682.22;;;5.57;100.00
79645;BME280;69117;47.148;18.954;2024-01-30T14:28:21;102671.09;;;5.25;100.00
79645;BME280;69117;47.148;18.954;2024-01-30T14:31:23;102687.44;;;5.33;100.00
79645;BME280;69117;47.148;18.954;2024-01-30T14:34:26;102679.69;;;5.28;100.00
79645;BME280;69117;47.148;18.954;2024-01-30T14:37:28;102684.41;;;5.19;100.00
79645;BME280;69117;47.148;18.954;2024-01-30T14:40:31;102670.06;;;5.04;100.00
79645;BME280;69117;47.148;18.954;2024-01-30T14:43:33;102680.50;;;5.05;100.00
79645;BME280;69117;47.148;18.954;2024-01-30T14:46:36;102691.38;;;4.93;100.00
79645;BME280;69117;47.148;18.954;2024-01-30T14:49:38;102674.44;;;4.77;100.00
79645;BME280;69117;47.148;18.954;2024-01-30T14:52:40;102681.56;;;4.72;100.00
79645;BME280;69117;47.148;18.954;2024-01-30T14:55:42;102682.69;;;4.65;100.00
79645;BME280;69117;47.148;18.954;2024-01-30T14:58:44;102685.91;;;4.45;100.00
79645;BME280;69117;47.148;18.954;2024-01-30T15:01:47;102675.69;;;4.37;100.00
79645;BME280;69117;47.148;18.954;2024-01-30T15:04:51;102660.28;;;4.26;100.00
79645;BME280;69117;47.148;18.954;2024-01-30T15:07:53;102678.59;;;4.26;100.00
79645;BME280;69117;47.148;18.954;2024-01-30T15:10:55;102681.59;;;4.14;100.00
79645;BME280;69117;47.148;18.954;2024-01-30T15:13:59;102665.66;;;3.92;100.00
79645;BME280;69117;47.148;18.954;2024-01-30T15:17:01;102683.47;;;3.79;100.00
79645;BME280;69117;47.148;18.954;2024-01-30T15:20:04;102673.63;;;3.56;100.00
79645;BME280;69117;47.148;18.954;2024-01-30T15:23:06;102671.50;;;3.39;100.00
79645;BME280;69117;47.148;18.954;2024-01-30T15:26:07;102678.81;;;3.25;100.00
79645;BME280;69117;47.148;18.954;2024-01-30T15:29:09;102662.00;;;3.03;100.00
79645;BME280;69117;47.148;18.954;2024-01-30T15:32:11;102677.06;;;2.90;100.00
79645;BME280;69117;47.148;18.954;2024-01-30T15:35:12;102679.41;;;2.66;100.00